createdAt,value
2023-04-25T00:01:55.691Z,93631.25
2023-04-25T00:04:23.211Z,93635.00
2023-04-25T00:06:49.996Z,93631.56
2023-04-25T00:09:16.418Z,93628.69
2023-04-25T00:11:42.853Z,93626.84
2023-04-25T00:14:09.342Z,93635.13
2023-04-25T00:16:36.532Z,93617.56
2023-04-25T00:19:03.925Z,93620.34
2023-04-25T00:21:32.391Z,93611.28
2023-04-25T00:23:58.888Z,93620.34
2023-04-25T00:26:25.930Z,93618.22
2023-04-25T00:28:52.935Z,93618.03
2023-04-25T00:31:19.480Z,93611.88
2023-04-25T00:33:45.982Z,93603.59
2023-04-25T00:36:12.638Z,93611.78
2023-04-25T00:38:39.301Z,93602.06
2023-04-25T00:41:08.367Z,93603.41
2023-04-25T00:43:37.012Z,93594.63
2023-04-25T00:46:03.621Z,93601.16
2023-04-25T00:48:30.052Z,93593.94
2023-04-25T00:50:59.523Z,93590.09
2023-04-25T00:53:28.290Z,93584.94
2023-04-25T00:55:56.264Z,93581.84
2023-04-25T00:58:23.365Z,93570.50
2023-04-25T01:00:52.858Z,93561.78
2023-04-25T01:03:23.152Z,93560.72
2023-04-25T01:05:51.378Z,93564.25
2023-04-25T01:08:17.843Z,93587.56
2023-04-25T01:10:44.336Z,93585.81
2023-04-25T01:13:10.843Z,93591.53
2023-04-25T01:15:37.525Z,93578.66
2023-04-25T01:18:07.003Z,93593.94
2023-04-25T01:20:34.616Z,93594.22
2023-04-25T01:23:01.585Z,93594.28
2023-04-25T01:25:28.387Z,93588.63
2023-04-25T01:27:55.030Z,93596.88
2023-04-25T01:30:21.798Z,93596.09
2023-04-25T01:32:49.210Z,93586.53
2023-04-25T01:35:15.921Z,93576.47
2023-04-25T01:37:43.956Z,93589.41
2023-04-25T01:40:13.134Z,93579.81
2023-04-25T01:42:42.046Z,93587.84
2023-04-25T01:45:09.704Z,93581.91
2023-04-25T01:47:36.266Z,93572.41
2023-04-25T01:50:04.670Z,93576.16
2023-04-25T01:52:32.464Z,93574.28
2023-04-25T01:55:01.971Z,93570.81
2023-04-25T01:57:30.179Z,93563.66
2023-04-25T02:00:00.302Z,93571.41
2023-04-25T02:02:38.909Z,93568.81
2023-04-25T02:05:08.706Z,93570.34
2023-04-25T02:07:38.649Z,93569.31
2023-04-25T02:10:05.669Z,93563.06
2023-04-25T02:12:37.022Z,93561.53
2023-04-25T02:15:07.193Z,93565.16
2023-04-25T02:17:49.798Z,93571.19
2023-04-25T02:20:20.817Z,93562.19
2023-04-25T02:22:47.273Z,93573.00
2023-04-25T02:25:13.882Z,93563.13
2023-04-25T02:27:40.901Z,93566.22
2023-04-25T02:30:08.738Z,93562.00
2023-04-25T02:32:35.506Z,93561.75
2023-04-25T02:35:05.995Z,93561.44
2023-04-25T02:37:35.456Z,93551.88
2023-04-25T02:40:03.673Z,93550.31
2023-04-25T02:42:32.014Z,93544.38
2023-04-25T02:44:58.798Z,93536.41
2023-04-25T02:47:27.250Z,93530.38
2023-04-25T02:49:53.761Z,93533.44
2023-04-25T02:52:20.469Z,93532.41
2023-04-25T02:54:53.934Z,93527.69
2023-04-25T02:57:20.387Z,93527.44
2023-04-25T02:59:46.879Z,93534.41
2023-04-25T03:02:13.336Z,93538.53
2023-04-25T03:04:39.858Z,93537.28
2023-04-25T03:07:06.977Z,93536.81
2023-04-25T03:09:33.777Z,93543.78
2023-04-25T03:12:01.143Z,93533.72
2023-04-25T03:14:28.864Z,93536.59
2023-04-25T03:16:55.457Z,93533.53
2023-04-25T03:19:22.518Z,93529.38
2023-04-25T03:21:49.364Z,93530.94
2023-04-25T03:24:16.199Z,93534.00
2023-04-25T03:26:42.689Z,93534.00
2023-04-25T03:29:09.611Z,93540.72
2023-04-25T03:31:37.344Z,93536.31
2023-04-25T03:34:03.950Z,93539.19
2023-04-25T03:36:30.416Z,93534.00
2023-04-25T03:38:57.016Z,93542.28
2023-04-25T03:41:24.284Z,93539.88
2023-04-25T03:44:04.875Z,93540.56
2023-04-25T03:46:31.440Z,93533.75
2023-04-25T03:48:58.624Z,93526.94
2023-04-25T03:51:33.369Z,93522.28
2023-04-25T03:53:59.778Z,93522.53
2023-04-25T03:56:46.204Z,93527.81
2023-04-25T03:59:19.549Z,93529.72
2023-04-25T04:01:46.014Z,93526.44
2023-04-25T04:04:12.586Z,93529.59
2023-04-25T04:06:39.928Z,93533.03
2023-04-25T04:09:35.812Z,93532.06
2023-04-25T04:12:07.565Z,93534.75
2023-04-25T04:14:35.361Z,93539.91
2023-04-25T04:17:01.828Z,93533.22
2023-04-25T04:19:29.073Z,93543.06
2023-04-25T04:22:04.597Z,93541.81
2023-04-25T04:24:31.603Z,93540.28
2023-04-25T04:27:02.400Z,93537.50
2023-04-25T04:29:33.278Z,93542.19
2023-04-25T04:32:09.640Z,93543.50
2023-04-25T04:34:36.934Z,93532.97
2023-04-25T04:37:04.007Z,93544.47
2023-04-25T04:39:30.682Z,93540.28
2023-04-25T04:42:22.815Z,93540.47
2023-04-25T04:45:02.574Z,93541.25
2023-04-25T04:47:58.362Z,93546.66
2023-04-25T04:50:46.516Z,93538.56
2023-04-25T04:53:31.214Z,93539.84
2023-04-25T04:56:16.325Z,93543.88
2023-04-25T04:59:12.522Z,93553.13
2023-04-25T05:02:00.455Z,93563.59
2023-04-25T05:04:47.828Z,93559.28
2023-04-25T05:07:36.297Z,93558.44
2023-04-25T05:10:07.912Z,93551.63
2023-04-25T05:12:37.394Z,93551.63
2023-04-25T05:15:14.943Z,93554.16
2023-04-25T05:17:59.999Z,93556.16
2023-04-25T05:20:44.756Z,93550.97
2023-04-25T05:23:23.174Z,93552.53
2023-04-25T05:25:56.994Z,93550.97
2023-04-25T05:28:43.801Z,93554.63
2023-04-25T05:31:29.023Z,93555.47
2023-04-25T05:34:01.287Z,93564.59
2023-04-25T05:36:39.402Z,93553.28
2023-04-25T05:39:07.086Z,93556.63
2023-04-25T05:41:53.636Z,93557.69
2023-04-25T05:44:46.393Z,93549.34
2023-04-25T05:47:27.616Z,93556.66
2023-04-25T05:50:01.849Z,93557.34
2023-04-25T05:52:46.757Z,93553.88
2023-04-25T05:55:33.176Z,93560.03
2023-04-25T05:58:03.752Z,93555.34
2023-04-25T06:00:30.432Z,93559.94
2023-04-25T06:02:57.065Z,93562.44
2023-04-25T06:05:23.770Z,93563.31
2023-04-25T06:07:50.573Z,93561.56
2023-04-25T06:10:17.054Z,93556.84
2023-04-25T06:12:43.824Z,93558.88
2023-04-25T06:15:24.301Z,93558.88
2023-04-25T06:17:54.489Z,93551.66
2023-04-25T06:20:24.054Z,93553.50
2023-04-25T06:22:52.704Z,93557.94
2023-04-25T06:25:21.211Z,93556.38
2023-04-25T06:27:47.786Z,93556.19
2023-04-25T06:30:14.512Z,93566.75
2023-04-25T06:32:41.080Z,93565.69
2023-04-25T06:35:07.955Z,93554.25
2023-04-25T06:37:34.582Z,93548.50
2023-04-25T06:40:02.047Z,93552.16
2023-04-25T06:42:29.310Z,93556.97
2023-04-25T06:44:59.559Z,93553.63
2023-04-25T06:47:28.523Z,93560.22
2023-04-25T06:49:55.014Z,93561.19
2023-04-25T06:52:22.113Z,93554.88
2023-04-25T06:54:49.746Z,93558.81
2023-04-25T06:57:30.576Z,93557.66
2023-04-25T07:00:10.363Z,93554.22
2023-04-25T07:02:37.950Z,93559.09
2023-04-25T07:05:05.312Z,93566.63
2023-04-25T07:07:31.882Z,93562.94
2023-04-25T07:09:59.126Z,93557.63
2023-04-25T07:12:26.614Z,93560.06
2023-04-25T07:14:53.154Z,93564.16
2023-04-25T07:17:19.679Z,93567.53
2023-04-25T07:19:46.413Z,93575.03
2023-04-25T07:22:12.921Z,93569.34
2023-04-25T07:24:41.923Z,93568.31
2023-04-25T07:27:12.120Z,93569.25
2023-04-25T07:29:47.478Z,93572.56
2023-04-25T07:32:15.058Z,93569.97
2023-04-25T07:34:42.935Z,93578.50
2023-04-25T07:37:09.366Z,93571.78
2023-04-25T07:39:47.064Z,93572.19
2023-04-25T07:42:13.998Z,93577.84
2023-04-25T07:44:43.361Z,93570.84
2023-04-25T07:47:12.220Z,93575.66
2023-04-25T07:49:40.264Z,93580.94
2023-04-25T07:52:07.188Z,93579.50
2023-04-25T07:54:35.431Z,93582.09
2023-04-25T07:57:10.177Z,93578.13
2023-04-25T07:59:38.051Z,93581.31
2023-04-25T08:02:06.377Z,93586.69
2023-04-25T08:04:33.252Z,93587.47
2023-04-25T08:07:04.930Z,93589.66
2023-04-25T08:09:39.070Z,93588.78
2023-04-25T08:12:10.618Z,93583.50
2023-04-25T08:14:38.150Z,93593.19
2023-04-25T08:17:06.162Z,93594.03
2023-04-25T08:19:34.910Z,93591.34
2023-04-25T08:22:02.961Z,93596.69
2023-04-25T08:24:39.729Z,93601.19
2023-04-25T08:27:08.774Z,93600.59
2023-04-25T08:29:36.310Z,93601.56
2023-04-25T08:32:02.830Z,93606.44
2023-04-25T08:34:29.889Z,93605.88
2023-04-25T08:36:57.143Z,93610.78
2023-04-25T08:39:58.835Z,93616.91
2023-04-25T08:42:51.893Z,93615.78
2023-04-25T08:45:18.986Z,93612.53
2023-04-25T08:47:46.806Z,93617.63
2023-04-25T08:50:14.129Z,93615.09
2023-04-25T08:52:45.629Z,93629.50
2023-04-25T08:55:13.654Z,93627.19
2023-04-25T08:57:43.753Z,93623.78
2023-04-25T09:00:12.854Z,93621.16
2023-04-25T09:02:44.851Z,93628.47
2023-04-25T09:05:13.709Z,93633.59
2023-04-25T09:07:40.393Z,93638.22
2023-04-25T09:10:07.424Z,93643.66
2023-04-25T09:12:37.754Z,93648.47
2023-04-25T09:15:12.877Z,93657.13
2023-04-25T09:17:58.765Z,93661.06
2023-04-25T09:20:31.613Z,93666.94
2023-04-25T09:23:07.609Z,93667.34
2023-04-25T09:25:41.704Z,93673.84
2023-04-25T09:28:09.945Z,93675.84
2023-04-25T09:30:37.697Z,93681.75
2023-04-25T09:33:30.089Z,93685.00
2023-04-25T09:36:12.085Z,93679.16
2023-04-25T09:39:00.381Z,93684.28
2023-04-25T09:41:33.512Z,93683.09
2023-04-25T09:44:02.696Z,93689.84
2023-04-25T09:46:38.841Z,93695.97
2023-04-25T09:49:09.525Z,93701.16
2023-04-25T09:51:58.909Z,93710.41
2023-04-25T09:54:29.657Z,93707.34
2023-04-25T09:57:15.287Z,93717.47
2023-04-25T09:59:56.261Z,93709.78
2023-04-25T10:02:26.420Z,93715.75
2023-04-25T10:04:57.282Z,93708.75
2023-04-25T10:07:39.044Z,93711.25
2023-04-25T10:10:10.235Z,93710.88
2023-04-25T10:12:37.012Z,93707.75
2023-04-25T10:15:04.286Z,93706.84
2023-04-25T10:17:32.336Z,93712.06
2023-04-25T10:19:58.976Z,93714.25
2023-04-25T10:22:43.238Z,93710.22
2023-04-25T10:25:10.853Z,93706.97
2023-04-25T10:27:38.132Z,93715.16
2023-04-25T10:30:09.957Z,93708.94
2023-04-25T10:32:36.825Z,93720.28
2023-04-25T10:35:19.762Z,93710.88
2023-04-25T10:38:14.847Z,93710.31
2023-04-25T10:40:41.528Z,93711.84
2023-04-25T10:43:29.771Z,93721.97
2023-04-25T10:45:56.233Z,93719.69
2023-04-25T10:48:29.268Z,93716.22
2023-04-25T10:51:12.343Z,93723.72
2023-04-25T10:53:38.942Z,93717.00
2023-04-25T10:56:19.032Z,93725.53
2023-04-25T10:58:47.652Z,93732.13
2023-04-25T11:01:16.555Z,93739.66
2023-04-25T11:03:44.860Z,93743.28
2023-04-25T11:06:52.043Z,93747.50
2023-04-25T11:09:18.641Z,93745.53
2023-04-25T11:11:54.615Z,93745.63
2023-04-25T11:14:21.030Z,93745.47
2023-04-25T11:16:47.493Z,93748.53
2023-04-25T11:19:13.970Z,93745.56
2023-04-25T11:21:40.435Z,93740.94
2023-04-25T11:24:07.043Z,93744.53
2023-04-25T11:26:33.517Z,93746.53
2023-04-25T11:29:03.812Z,93741.34
2023-04-25T11:31:30.734Z,93741.34
2023-04-25T11:34:00.895Z,93748.84
2023-04-25T11:36:27.937Z,93753.69
2023-04-25T11:38:55.031Z,93738.16
2023-04-25T11:41:23.075Z,93752.22
2023-04-25T11:43:50.723Z,93757.63
2023-04-25T11:46:17.508Z,93755.03
2023-04-25T11:48:44.568Z,93761.72
2023-04-25T11:51:11.327Z,93765.09
2023-04-25T11:53:43.569Z,93776.47
2023-04-25T11:56:12.366Z,93768.69
2023-04-25T11:59:04.417Z,93776.41
2023-04-25T12:01:36.168Z,93791.28
2023-04-25T12:04:21.375Z,93793.69
2023-04-25T12:06:52.432Z,93793.75
2023-04-25T12:09:24.275Z,93795.34
2023-04-25T12:11:55.848Z,93805.78
2023-04-25T12:14:28.269Z,93814.94
2023-04-25T12:16:59.695Z,93811.19
2023-04-25T12:19:26.924Z,93814.88
2023-04-25T12:24:26.582Z,93817.81
2023-04-25T12:27:05.036Z,93824.81
2023-04-25T12:29:48.549Z,93823.53
2023-04-25T12:32:16.983Z,93826.91
2023-04-25T12:34:43.509Z,93824.31
2023-04-25T12:37:10.617Z,93830.47
2023-04-25T12:39:37.128Z,93831.81
2023-04-25T12:42:05.073Z,93837.75
2023-04-25T12:44:32.702Z,93843.47
2023-04-25T12:47:00.893Z,93844.88
2023-04-25T12:49:27.471Z,93841.38
2023-04-25T12:51:53.953Z,93850.50
2023-04-25T12:54:20.709Z,93839.81
2023-04-25T12:56:47.315Z,93850.34
2023-04-25T12:59:13.768Z,93847.69
2023-04-25T13:01:40.565Z,93854.31
2023-04-25T13:04:07.362Z,93853.72
2023-04-25T13:06:33.931Z,93858.19
2023-04-25T13:09:00.411Z,93872.69
2023-04-25T13:11:26.983Z,93856.84
2023-04-25T13:13:53.914Z,93864.41
2023-04-25T13:16:21.944Z,93851.88
2023-04-25T13:18:48.905Z,93856.84
2023-04-25T13:21:15.594Z,93856.13
2023-04-25T13:23:43.781Z,93849.78
2023-04-25T13:26:10.416Z,93856.47
2023-04-25T13:28:36.874Z,93851.44
2023-04-25T13:31:03.329Z,93848.78
2023-04-25T13:33:29.959Z,93852.06
2023-04-25T13:35:57.973Z,93854.03
2023-04-25T13:38:26.472Z,93840.81
2023-04-25T13:40:53.639Z,93851.22
2023-04-25T13:43:23.161Z,93854.31
2023-04-25T13:45:51.052Z,93849.69
2023-04-25T13:48:17.573Z,93844.81
2023-04-25T13:50:44.109Z,93848.97
2023-04-25T13:53:10.857Z,93844.53
2023-04-25T13:55:37.855Z,93847.94
2023-04-25T13:58:11.035Z,93848.03
2023-04-25T14:00:44.105Z,93850.16
2023-04-25T14:03:11.027Z,93850.63
2023-04-25T14:05:41.146Z,93855.31
2023-04-25T14:08:10.899Z,93854.31
2023-04-25T14:10:38.092Z,93856.03
2023-04-25T14:13:05.517Z,93854.69
2023-04-25T14:15:35.525Z,93870.66
2023-04-25T14:18:02.599Z,93862.53
2023-04-25T14:20:30.005Z,93854.06
2023-04-25T14:22:59.659Z,93851.25
2023-04-25T14:25:26.404Z,93863.41
2023-04-25T14:27:53.327Z,93862.31
2023-04-25T14:30:21.898Z,93869.09
2023-04-25T14:32:50.445Z,93865.38
2023-04-25T14:35:17.118Z,93883.56
2023-04-25T14:37:43.641Z,93884.91
2023-04-25T14:40:11.624Z,93882.13
2023-04-25T14:42:38.626Z,93881.41
2023-04-25T14:45:07.220Z,93892.28
2023-04-25T14:47:34.448Z,93890.91
2023-04-25T14:50:02.534Z,93893.00
2023-04-25T14:52:29.268Z,93894.88
2023-04-25T14:54:55.731Z,93901.34
2023-04-25T14:57:22.186Z,93888.88
2023-04-25T14:59:48.639Z,93897.34
2023-04-25T15:02:15.175Z,93897.03
2023-04-25T15:04:41.967Z,93891.19
2023-04-25T15:07:08.436Z,93895.63
2023-04-25T15:09:34.851Z,93895.09
2023-04-25T15:12:01.569Z,93900.22
2023-04-25T15:14:28.012Z,93896.06
2023-04-25T15:16:54.492Z,93899.34
2023-04-25T15:19:21.590Z,93901.56
2023-04-25T15:21:48.575Z,93906.53
2023-04-25T15:24:16.094Z,93922.41
2023-04-25T15:26:42.566Z,93918.94
2023-04-25T15:29:08.960Z,93923.91
2023-04-25T15:31:35.381Z,93931.16
2023-04-25T15:34:01.828Z,93919.41
2023-04-25T15:36:28.663Z,93928.38
2023-04-25T15:38:55.054Z,93927.78
2023-04-25T15:41:22.073Z,93931.91
2023-04-25T15:43:48.973Z,93925.97
2023-04-25T15:46:16.072Z,93924.22
2023-04-25T15:48:42.645Z,93923.53
2023-04-25T15:51:09.855Z,93919.31
2023-04-25T15:53:36.412Z,93922.41
2023-04-25T15:56:04.572Z,93927.50
2023-04-25T15:58:31.174Z,93921.91
2023-04-25T16:00:57.789Z,93927.50
2023-04-25T16:03:24.638Z,93926.72
2023-04-25T16:05:51.273Z,93931.91
2023-04-25T16:08:17.728Z,93927.13
2023-04-25T16:10:44.279Z,93935.03
2023-04-25T16:13:11.444Z,93926.81
2023-04-25T16:15:38.104Z,93929.63
2023-04-25T16:18:04.798Z,93934.72
2023-04-25T16:20:31.361Z,93935.50
2023-04-25T16:22:57.848Z,93937.22
2023-04-25T16:25:24.439Z,93934.06
2023-04-25T16:27:51.910Z,93932.13
2023-04-25T16:30:18.382Z,93931.34
2023-04-25T16:32:45.752Z,93933.47
2023-04-25T16:35:12.381Z,93936.66
2023-04-25T16:37:38.923Z,93945.41
2023-04-25T16:40:08.849Z,93950.75
2023-04-25T16:42:36.302Z,93948.84
2023-04-25T16:45:04.895Z,93941.75
2023-04-25T16:47:31.685Z,93965.94
2023-04-25T16:50:01.243Z,93961.38
2023-04-25T16:52:27.709Z,93970.59
2023-04-25T16:54:54.155Z,93971.50
2023-04-25T16:57:21.176Z,93972.69
2023-04-25T16:59:47.694Z,93968.09
2023-04-25T17:02:15.244Z,93972.34
2023-04-25T17:04:41.969Z,93975.75
2023-04-25T17:07:08.869Z,93987.81
2023-04-25T17:09:35.731Z,93990.25
2023-04-25T17:12:03.731Z,93984.91
2023-04-25T17:14:30.285Z,93981.88
2023-04-25T17:16:56.823Z,93979.59
2023-04-25T17:19:23.325Z,93981.47
2023-04-25T17:21:50.896Z,93983.84
2023-04-25T17:24:18.143Z,93986.00
2023-04-25T17:26:45.764Z,93987.03
2023-04-25T17:29:13.964Z,93980.88
2023-04-25T17:31:40.380Z,93982.38
2023-04-25T17:34:07.512Z,93987.09
2023-04-25T17:36:33.926Z,93987.84
2023-04-25T17:39:00.317Z,93990.69
2023-04-25T17:41:26.791Z,93987.03
2023-04-25T17:43:53.194Z,93985.72
2023-04-25T17:46:19.607Z,93984.38
2023-04-25T17:48:46.047Z,93994.72
2023-04-25T17:51:12.543Z,93990.53
2023-04-25T17:53:38.984Z,93988.72
2023-04-25T17:56:08.630Z,94001.38
2023-04-25T17:58:42.595Z,93998.28
2023-04-25T18:01:09.212Z,94001.91
2023-04-25T18:03:37.962Z,94005.03
2023-04-25T18:06:04.742Z,94004.75
2023-04-25T18:08:31.234Z,94007.63
2023-04-25T18:10:57.795Z,94002.44
2023-04-25T18:13:25.603Z,94016.66
2023-04-25T18:15:52.174Z,94025.22
2023-04-25T18:18:25.341Z,94028.06
2023-04-25T18:20:51.962Z,94019.81
2023-04-25T18:23:18.401Z,94031.44
2023-04-25T18:25:46.719Z,94030.41
2023-04-25T18:28:13.448Z,94030.91
2023-04-25T18:30:39.898Z,94030.66
2023-04-25T18:33:06.350Z,94047.50
2023-04-25T18:35:32.812Z,94045.97
2023-04-25T18:37:59.259Z,94051.56
2023-04-25T18:40:25.778Z,94052.63
2023-04-25T18:42:52.236Z,94049.56
2023-04-25T18:45:18.743Z,94048.78
2023-04-25T18:47:46.600Z,94050.31
2023-04-25T18:50:13.257Z,94049.75
2023-04-25T18:52:39.721Z,94057.28
2023-04-25T18:55:06.517Z,94066.56
2023-04-25T18:57:32.984Z,94069.16
2023-04-25T18:59:59.706Z,94067.66
2023-04-25T19:02:26.430Z,94071.50
2023-04-25T19:04:53.053Z,94073.03
2023-04-25T19:07:20.879Z,94077.19
2023-04-25T19:09:47.334Z,94087.00
2023-04-25T19:12:14.066Z,94082.31
2023-04-25T19:14:40.565Z,94089.31
2023-04-25T19:17:07.002Z,94085.44
2023-04-25T19:19:33.487Z,94091.16
2023-04-25T19:22:00.787Z,94097.97
2023-04-25T19:24:27.356Z,94098.53
2023-04-25T19:26:53.850Z,94098.06
2023-04-25T19:29:20.387Z,94103.25
2023-04-25T19:31:46.850Z,94108.94
2023-04-25T19:34:13.859Z,94109.47
2023-04-25T19:36:42.183Z,94107.94
2023-04-25T19:39:08.704Z,94080.09
2023-04-25T19:41:36.829Z,94106.41
2023-04-25T19:44:06.044Z,94106.19
2023-04-25T19:46:33.521Z,94106.19
2023-04-25T19:49:00.459Z,94111.09
2023-04-25T19:51:28.043Z,94119.34
2023-04-25T19:53:55.088Z,94123.53
2023-04-25T19:56:22.488Z,94110.66
2023-04-25T19:58:49.098Z,94119.19
2023-04-25T20:01:15.919Z,94122.59
2023-04-25T20:03:42.873Z,94112.75
2023-04-25T20:06:11.291Z,94122.09
2023-04-25T20:08:37.773Z,94113.59
2023-04-25T20:11:04.208Z,94118.47
2023-04-25T20:13:31.277Z,94112.75
2023-04-25T20:16:00.571Z,94118.44
2023-04-25T20:18:29.212Z,94123.88
2023-04-25T20:20:55.669Z,94124.38
2023-04-25T20:23:22.133Z,94125.66
2023-04-25T20:25:48.747Z,94129.25
2023-04-25T20:28:15.251Z,94131.56
2023-04-25T20:30:41.784Z,94136.00
2023-04-25T20:33:09.229Z,94132.09
2023-04-25T20:35:36.852Z,94129.53
2023-04-25T20:38:03.303Z,94132.94
2023-04-25T20:40:29.766Z,94128.06
2023-04-25T20:42:56.494Z,94127.84
2023-04-25T20:45:24.311Z,94121.88
2023-04-25T20:47:50.933Z,94131.47
2023-04-25T20:50:17.526Z,94137.13
2023-04-25T20:52:44.413Z,94138.94
2023-04-25T20:55:11.871Z,94124.19
2023-04-25T20:57:38.361Z,94126.78
2023-04-25T21:00:15.708Z,94135.06
2023-04-25T21:02:42.677Z,94134.81
2023-04-25T21:05:10.711Z,94134.81
2023-04-25T21:07:38.116Z,94134.06
2023-04-25T21:10:05.072Z,94140.25
2023-04-25T21:12:31.532Z,94138.94
2023-04-25T21:15:00.197Z,94142.31
2023-04-25T21:17:27.260Z,94147.78
2023-04-25T21:19:53.716Z,94138.47
2023-04-25T21:22:20.245Z,94139.00
2023-04-25T21:24:50.287Z,94143.94
2023-04-25T21:27:19.646Z,94144.22
2023-04-25T21:29:46.118Z,94148.59
2023-04-25T21:32:16.645Z,94160.03
2023-04-25T21:34:43.243Z,94157.97
2023-04-25T21:37:09.808Z,94159.78
2023-04-25T21:39:36.225Z,94152.53
2023-04-25T21:42:06.150Z,94149.94
2023-04-25T21:44:32.964Z,94147.06
2023-04-25T21:46:59.465Z,94151.50
2023-04-25T21:49:29.329Z,94159.28
2023-04-25T21:51:57.132Z,94159.53
2023-04-25T21:54:23.502Z,94153.81
2023-04-25T21:56:49.938Z,94157.69
2023-04-25T21:59:16.337Z,94158.72
2023-04-25T22:01:43.446Z,94158.19
2023-04-25T22:04:10.125Z,94159.19
2023-04-25T22:06:36.736Z,94159.19
2023-04-25T22:09:04.734Z,94168.22
2023-04-25T22:11:31.200Z,94169.00
2023-04-25T22:13:57.675Z,94162.03
2023-04-25T22:16:24.208Z,94157.88
2023-04-25T22:18:52.079Z,94159.44
2023-04-25T22:21:18.671Z,94165.94
2023-04-25T22:23:45.127Z,94165.66
2023-04-25T22:26:12.473Z,94168.25
2023-04-25T22:28:39.705Z,94174.47
2023-04-25T22:31:06.235Z,94171.91
2023-04-25T22:33:33.412Z,94179.69
2023-04-25T22:36:00.266Z,94177.63
2023-04-25T22:38:27.340Z,94175.03
2023-04-25T22:40:53.768Z,94178.13
2023-04-25T22:43:20.840Z,94181.78
2023-04-25T22:45:47.391Z,94184.91
2023-04-25T22:48:14.379Z,94185.16
2023-04-25T22:50:41.151Z,94180.75
2023-04-25T22:53:09.140Z,94178.94
2023-04-25T22:55:36.727Z,94178.16
2023-04-25T22:58:08.611Z,94186.44
2023-04-25T23:00:35.350Z,94188.25
2023-04-25T23:03:04.868Z,94191.16
2023-04-25T23:05:32.764Z,94186.50
2023-04-25T23:07:59.354Z,94191.69
2023-04-25T23:10:27.921Z,94196.34
2023-04-25T23:12:57.317Z,94190.41
2023-04-25T23:15:26.607Z,94187.03
2023-04-25T23:17:53.469Z,94189.63
2023-04-25T23:20:21.027Z,94185.47
2023-04-25T23:22:47.894Z,94188.06
2023-04-25T23:25:14.843Z,94184.69
2023-04-25T23:27:41.713Z,94190.41
2023-04-25T23:30:10.437Z,94188.84
2023-04-25T23:32:37.894Z,94189.09
2023-04-25T23:35:05.554Z,94180.84
2023-04-25T23:37:37.206Z,94174.66
2023-04-25T23:40:12.345Z,94188.38
2023-04-25T23:42:40.982Z,94184.47
2023-04-25T23:45:09.047Z,94187.06
2023-04-25T23:47:36.081Z,94186.81
2023-04-25T23:50:03.257Z,94188.63
2023-04-25T23:52:29.736Z,94181.88
2023-04-25T23:54:56.393Z,94178.78
2023-04-25T23:57:22.825Z,94191.19
2023-04-25T23:59:49.304Z,94187.06
